createdAt,value
2023-05-13T00:00:45.294Z,49.95
2023-05-13T00:01:45.276Z,49.95
2023-05-13T00:02:45.368Z,47.37
2023-05-13T00:03:45.359Z,47.53
2023-05-13T00:04:45.255Z,51.24
2023-05-13T00:05:45.276Z,49.95
2023-05-13T00:06:45.262Z,50.27
2023-05-13T00:07:45.237Z,47.86
2023-05-13T00:08:45.285Z,46.41
2023-05-13T00:09:45.232Z,52.05
2023-05-13T00:10:45.236Z,50.92
2023-05-13T00:11:45.223Z,52.37
2023-05-13T00:12:45.202Z,50.76
2023-05-13T00:13:45.213Z,47.70
2023-05-13T00:14:45.196Z,48.50
2023-05-13T00:15:45.209Z,48.50
2023-05-13T00:16:45.205Z,48.98
2023-05-13T00:17:45.191Z,47.37
2023-05-13T00:18:45.237Z,47.05
2023-05-13T00:19:45.164Z,46.73
2023-05-13T00:20:45.179Z,48.98
2023-05-13T00:21:45.153Z,47.37
2023-05-13T00:22:45.172Z,48.02
2023-05-13T00:23:45.136Z,47.21
2023-05-13T00:24:45.150Z,48.66
2023-05-13T00:25:46.128Z,47.37
2023-05-13T00:26:45.119Z,47.86
2023-05-13T00:27:45.142Z,47.21
2023-05-13T00:28:45.175Z,48.50
2023-05-13T00:29:45.099Z,49.63
2023-05-13T00:30:45.098Z,49.47
2023-05-13T00:31:45.128Z,47.86
2023-05-13T00:32:45.144Z,48.98
2023-05-13T00:33:45.079Z,46.89
2023-05-13T00:34:45.077Z,46.41
2023-05-13T00:35:45.081Z,48.02
2023-05-13T00:36:45.055Z,47.53
2023-05-13T00:37:45.085Z,48.02
2023-05-13T00:38:45.050Z,47.86
2023-05-13T00:39:45.047Z,48.82
2023-05-13T00:40:45.043Z,51.08
2023-05-13T00:41:45.038Z,47.70
2023-05-13T00:42:45.032Z,50.60
2023-05-13T00:43:45.037Z,51.88
2023-05-13T00:44:45.012Z,48.02
2023-05-13T00:45:45.037Z,46.25
2023-05-13T00:46:45.018Z,46.57
2023-05-13T00:47:45.059Z,49.79
2023-05-13T00:48:44.990Z,46.89
2023-05-13T00:49:44.983Z,48.18
2023-05-13T00:50:44.972Z,47.53
2023-05-13T00:51:44.965Z,47.37
2023-05-13T00:52:44.981Z,49.15
2023-05-13T00:53:44.956Z,47.70
2023-05-13T00:54:44.945Z,47.70
2023-05-13T00:55:44.948Z,51.24
2023-05-13T00:56:44.939Z,48.98
2023-05-13T00:57:44.932Z,48.34
2023-05-13T00:58:44.914Z,47.70
2023-05-13T00:59:44.940Z,47.21
2023-05-13T01:00:44.938Z,48.18
2023-05-13T01:01:44.952Z,46.89
2023-05-13T01:02:44.956Z,48.82
2023-05-13T01:03:44.927Z,50.92
2023-05-13T01:04:44.939Z,48.50
2023-05-13T01:05:44.874Z,49.15
2023-05-13T01:06:44.860Z,48.82
2023-05-13T01:07:44.875Z,50.60
2023-05-13T01:08:44.857Z,52.53
2023-05-13T01:09:44.870Z,51.08
2023-05-13T01:10:44.847Z,49.79
2023-05-13T01:11:44.834Z,47.21
2023-05-13T01:12:44.818Z,48.34
2023-05-13T01:13:44.815Z,46.73
2023-05-13T01:14:44.822Z,48.50
2023-05-13T01:15:44.823Z,48.98
2023-05-13T01:16:44.811Z,49.95
2023-05-13T01:17:44.861Z,46.08
2023-05-13T01:18:44.827Z,47.21
2023-05-13T01:19:44.803Z,47.05
2023-05-13T01:20:44.783Z,46.25
2023-05-13T01:21:44.759Z,45.44
2023-05-13T01:22:44.755Z,45.92
2023-05-13T01:23:44.750Z,46.41
2023-05-13T01:24:44.754Z,48.82
2023-05-13T01:25:44.730Z,46.57
2023-05-13T01:26:44.750Z,46.73
2023-05-13T01:27:44.728Z,46.89
2023-05-13T01:28:44.720Z,46.41
2023-05-13T01:29:44.712Z,46.41
2023-05-13T01:30:44.720Z,47.70
2023-05-13T01:31:44.858Z,46.41
2023-05-13T01:32:44.707Z,46.73
2023-05-13T01:33:44.686Z,47.05
2023-05-13T01:34:44.693Z,46.73
2023-05-13T01:35:44.677Z,46.57
2023-05-13T01:36:44.666Z,46.41
2023-05-13T01:37:44.664Z,46.89
2023-05-13T01:38:44.658Z,45.60
2023-05-13T01:39:44.665Z,45.60
2023-05-13T01:40:44.648Z,49.79
2023-05-13T01:41:45.654Z,51.08
2023-05-13T01:42:44.707Z,50.43
2023-05-13T01:43:44.635Z,46.25
2023-05-13T01:44:44.610Z,46.41
2023-05-13T01:45:44.624Z,49.15
2023-05-13T01:46:44.670Z,45.76
2023-05-13T01:47:44.634Z,46.08
2023-05-13T01:48:44.593Z,46.25
2023-05-13T01:49:44.586Z,48.18
2023-05-13T01:50:44.600Z,49.31
2023-05-13T01:51:44.573Z,50.27
2023-05-13T01:52:44.577Z,48.18
2023-05-13T01:53:44.597Z,46.57
2023-05-13T01:54:44.557Z,47.53
2023-05-13T01:55:44.554Z,48.34
2023-05-13T01:56:44.568Z,45.92
2023-05-13T01:57:44.561Z,46.57
2023-05-13T01:58:44.525Z,47.05
2023-05-13T01:59:44.520Z,45.60
2023-05-13T02:00:44.515Z,46.41
2023-05-13T02:01:44.534Z,48.18
2023-05-13T02:02:44.690Z,47.86
2023-05-13T02:03:44.547Z,50.76
2023-05-13T02:04:44.497Z,49.79
2023-05-13T02:05:44.481Z,50.27
2023-05-13T02:06:44.481Z,46.41
2023-05-13T02:07:44.482Z,46.89
2023-05-13T02:08:44.465Z,47.37
2023-05-13T02:09:44.469Z,46.41
2023-05-13T02:10:44.456Z,46.25
2023-05-13T02:11:44.445Z,46.25
2023-05-13T02:12:44.443Z,48.50
2023-05-13T02:13:44.438Z,47.53
2023-05-13T02:14:44.461Z,47.37
2023-05-13T02:15:44.432Z,48.50
2023-05-13T02:16:44.432Z,46.08
2023-05-13T02:17:44.428Z,46.73
2023-05-13T02:18:44.476Z,52.53
2023-05-13T02:19:44.405Z,49.31
2023-05-13T02:20:44.407Z,48.82
2023-05-13T02:21:44.397Z,50.11
2023-05-13T02:22:44.386Z,51.56
2023-05-13T02:23:44.368Z,48.02
2023-05-13T02:24:44.375Z,49.15
2023-05-13T02:25:44.400Z,45.76
2023-05-13T02:26:44.385Z,45.92
2023-05-13T02:27:44.349Z,47.86
2023-05-13T02:28:44.365Z,47.86
2023-05-13T02:29:44.338Z,47.86
2023-05-13T02:30:44.338Z,46.73
2023-05-13T02:31:44.365Z,45.92
2023-05-13T02:32:44.462Z,48.50
2023-05-13T02:33:44.321Z,49.31
2023-05-13T02:34:44.324Z,48.34
2023-05-13T02:35:44.311Z,49.63
2023-05-13T02:36:44.314Z,50.27
2023-05-13T02:37:44.306Z,51.08
2023-05-13T02:38:44.403Z,54.46
2023-05-13T02:39:44.278Z,52.37
2023-05-13T02:40:44.293Z,50.76
2023-05-13T02:41:44.279Z,53.17
2023-05-13T02:42:44.279Z,53.98
2023-05-13T02:43:44.253Z,49.15
2023-05-13T02:44:44.246Z,52.21
2023-05-13T02:45:44.253Z,52.05
2023-05-13T02:46:44.282Z,50.76
2023-05-13T02:47:44.265Z,52.05
2023-05-13T02:48:44.221Z,54.79
2023-05-13T02:49:44.212Z,52.37
2023-05-13T02:50:44.206Z,51.56
2023-05-13T02:51:44.224Z,51.56
2023-05-13T02:52:44.245Z,53.33
2023-05-13T02:53:44.191Z,49.31
2023-05-13T02:54:44.225Z,52.85
2023-05-13T02:55:44.189Z,52.05
2023-05-13T02:56:44.170Z,51.72
2023-05-13T02:57:44.171Z,52.53
2023-05-13T02:58:44.198Z,50.76
2023-05-13T02:59:44.147Z,49.79
2023-05-13T03:00:44.191Z,51.24
2023-05-13T03:01:44.186Z,52.21
2023-05-13T03:02:44.240Z,50.76
2023-05-13T03:03:44.151Z,49.15
2023-05-13T03:04:44.114Z,47.53
2023-05-13T03:05:44.115Z,48.98
2023-05-13T03:06:44.114Z,49.79
2023-05-13T03:07:44.120Z,49.79
2023-05-13T03:08:44.087Z,48.66
2023-05-13T03:09:44.097Z,52.21
2023-05-13T03:10:44.077Z,51.08
2023-05-13T03:11:44.089Z,51.24
2023-05-13T03:12:44.077Z,51.56
2023-05-13T03:13:44.078Z,51.56
2023-05-13T03:14:44.052Z,50.27
2023-05-13T03:15:44.702Z,51.88
2023-05-13T03:16:45.059Z,52.05
2023-05-13T03:17:44.063Z,51.56
2023-05-13T03:18:44.052Z,49.63
2023-05-13T03:19:44.025Z,49.79
2023-05-13T03:20:44.021Z,50.11
2023-05-13T03:21:44.090Z,48.50
2023-05-13T03:22:44.016Z,49.15
2023-05-13T03:23:44.018Z,47.70
2023-05-13T03:24:43.989Z,47.86
2023-05-13T03:25:43.987Z,49.31
2023-05-13T03:26:43.978Z,49.15
2023-05-13T03:27:43.964Z,49.15
2023-05-13T03:28:43.990Z,50.11
2023-05-13T03:29:43.966Z,48.34
2023-05-13T03:30:43.953Z,49.79
2023-05-13T03:31:44.003Z,51.56
2023-05-13T03:32:44.056Z,49.79
2023-05-13T03:33:43.928Z,49.47
2023-05-13T03:34:43.983Z,51.40
2023-05-13T03:35:43.911Z,50.60
2023-05-13T03:36:43.902Z,48.66
2023-05-13T03:37:43.899Z,49.63
2023-05-13T03:38:43.899Z,50.27
2023-05-13T03:39:43.887Z,48.98
2023-05-13T03:40:43.903Z,51.56
2023-05-13T03:41:43.885Z,51.24
2023-05-13T03:42:43.871Z,46.89
2023-05-13T03:43:43.871Z,49.79
2023-05-13T03:44:43.870Z,48.18
2023-05-13T03:45:43.863Z,49.95
2023-05-13T03:46:43.869Z,48.98
2023-05-13T03:47:43.932Z,52.05
2023-05-13T03:48:43.830Z,47.53
2023-05-13T03:49:43.829Z,50.11
2023-05-13T03:50:43.832Z,48.18
2023-05-13T03:51:43.831Z,48.66
2023-05-13T03:52:45.508Z,51.40
2023-05-13T03:53:43.803Z,50.92
2023-05-13T03:54:43.797Z,48.18
2023-05-13T03:55:43.788Z,50.43
2023-05-13T03:56:43.785Z,49.47
2023-05-13T03:57:43.797Z,52.37
2023-05-13T03:58:43.786Z,50.92
2023-05-13T03:59:43.794Z,47.21
2023-05-13T04:00:43.771Z,49.63
2023-05-13T04:01:43.834Z,49.15
2023-05-13T04:02:44.016Z,47.37
2023-05-13T04:03:43.756Z,49.31
2023-05-13T04:04:43.766Z,49.63
2023-05-13T04:05:43.739Z,48.66
2023-05-13T04:06:43.750Z,46.57
2023-05-13T04:07:43.745Z,48.34
2023-05-13T04:08:43.718Z,48.82
2023-05-13T04:09:43.706Z,50.11
2023-05-13T04:10:43.737Z,48.34
2023-05-13T04:11:43.977Z,50.60
2023-05-13T04:12:43.696Z,51.08
2023-05-13T04:13:43.748Z,47.53
2023-05-13T04:14:43.687Z,50.92
2023-05-13T04:15:43.677Z,53.50
2023-05-13T04:16:43.809Z,52.05
2023-05-13T04:17:43.699Z,50.27
2023-05-13T04:18:43.669Z,53.01
2023-05-13T04:19:43.657Z,51.56
2023-05-13T04:20:43.657Z,51.08
2023-05-13T04:21:43.640Z,50.60
2023-05-13T04:22:43.663Z,47.70
2023-05-13T04:23:43.644Z,50.11
2023-05-13T04:24:43.631Z,52.53
2023-05-13T04:25:43.615Z,49.15
2023-05-13T04:26:43.604Z,48.82
2023-05-13T04:27:43.612Z,52.05
2023-05-13T04:28:43.606Z,54.62
2023-05-13T04:29:43.627Z,49.95
2023-05-13T04:30:43.587Z,51.40
2023-05-13T04:31:43.580Z,53.33
2023-05-13T04:32:43.617Z,50.60
2023-05-13T04:33:43.556Z,52.21
2023-05-13T04:34:43.556Z,53.50
2023-05-13T04:35:43.558Z,54.30
2023-05-13T04:36:43.541Z,54.79
2023-05-13T04:37:43.547Z,55.43
2023-05-13T04:38:43.571Z,53.82
2023-05-13T04:39:43.522Z,51.56
2023-05-13T04:40:43.534Z,52.85
2023-05-13T04:41:43.569Z,53.33
2023-05-13T04:42:43.507Z,51.56
2023-05-13T04:43:43.518Z,51.40
2023-05-13T04:44:43.499Z,53.50
2023-05-13T04:45:43.532Z,52.37
2023-05-13T04:46:43.603Z,51.88
2023-05-13T04:47:43.515Z,54.95
2023-05-13T04:48:43.505Z,53.01
2023-05-13T04:49:43.487Z,52.37
2023-05-13T04:50:43.484Z,48.98
2023-05-13T04:51:43.516Z,51.08
2023-05-13T04:52:43.449Z,51.24
2023-05-13T04:53:43.477Z,49.79
2023-05-13T04:54:43.436Z,51.88
2023-05-13T04:55:44.606Z,52.21
2023-05-13T04:56:45.324Z,52.05
2023-05-13T04:57:43.432Z,54.79
2023-05-13T04:58:43.412Z,51.88
2023-05-13T04:59:43.549Z,49.79
2023-05-13T05:00:43.413Z,49.15
2023-05-13T05:01:43.406Z,50.76
2023-05-13T05:02:43.407Z,53.33
2023-05-13T05:03:43.420Z,53.82
2023-05-13T05:04:43.402Z,50.76
2023-05-13T05:05:43.376Z,48.98
2023-05-13T05:06:43.369Z,51.56
2023-05-13T05:07:43.348Z,52.53
2023-05-13T05:08:43.369Z,53.98
2023-05-13T05:09:43.354Z,52.21
2023-05-13T05:10:43.429Z,51.88
2023-05-13T05:11:43.355Z,52.21
2023-05-13T05:12:43.883Z,50.60
2023-05-13T05:13:43.323Z,49.47
2023-05-13T05:14:43.332Z,49.63
2023-05-13T05:15:43.307Z,49.79
2023-05-13T05:16:43.306Z,50.76
2023-05-13T05:17:44.388Z,51.24
2023-05-13T05:18:43.758Z,51.72
2023-05-13T05:19:43.308Z,50.76
2023-05-13T05:20:43.269Z,51.40
2023-05-13T05:21:43.268Z,50.92
2023-05-13T05:22:43.267Z,51.88
2023-05-13T05:23:43.271Z,51.88
2023-05-13T05:24:43.263Z,50.11
2023-05-13T05:25:43.272Z,50.27
2023-05-13T05:26:43.236Z,50.92
2023-05-13T05:27:43.252Z,52.85
2023-05-13T05:28:43.263Z,53.17
2023-05-13T05:29:43.219Z,52.37
2023-05-13T05:30:43.246Z,52.53
2023-05-13T05:31:43.238Z,51.08
2023-05-13T05:32:43.281Z,48.66
2023-05-13T05:33:43.223Z,49.79
2023-05-13T05:34:43.202Z,49.15
2023-05-13T05:35:43.173Z,51.08
2023-05-13T05:36:43.191Z,52.21
2023-05-13T05:37:43.163Z,50.60
2023-05-13T05:38:43.219Z,49.63
2023-05-13T05:39:43.152Z,49.47
2023-05-13T05:40:43.133Z,50.92
2023-05-13T05:41:43.169Z,50.76
2023-05-13T05:42:43.138Z,51.56
2023-05-13T05:43:43.129Z,49.47
2023-05-13T05:44:43.121Z,49.95
2023-05-13T05:45:43.107Z,49.47
2023-05-13T05:46:43.133Z,50.92
2023-05-13T05:47:43.102Z,50.11
2023-05-13T05:48:43.074Z,49.31
2023-05-13T05:49:43.077Z,48.98
2023-05-13T05:50:43.087Z,51.72
2023-05-13T05:51:43.099Z,49.79
2023-05-13T05:52:43.049Z,50.92
2023-05-13T05:53:43.045Z,52.85
2023-05-13T05:54:43.041Z,52.85
2023-05-13T05:55:43.037Z,49.47
2023-05-13T05:56:43.064Z,51.56
2023-05-13T05:57:43.023Z,50.11
2023-05-13T05:58:43.010Z,48.18
2023-05-13T05:59:43.004Z,52.37
2023-05-13T06:00:42.999Z,52.05
2023-05-13T06:01:43.021Z,50.43
2023-05-13T06:02:43.105Z,48.98
2023-05-13T06:03:43.083Z,49.79
2023-05-13T06:04:43.072Z,49.63
2023-05-13T06:05:42.985Z,50.76
2023-05-13T06:06:43.011Z,50.60
2023-05-13T06:07:43.027Z,49.95
2023-05-13T06:08:42.962Z,51.88
2023-05-13T06:09:42.974Z,51.40
2023-05-13T06:10:42.960Z,50.27
2023-05-13T06:11:42.929Z,50.76
2023-05-13T06:12:42.941Z,52.37
2023-05-13T06:13:42.927Z,51.72
2023-05-13T06:14:42.885Z,52.21
2023-05-13T06:15:42.938Z,51.08
2023-05-13T06:16:42.908Z,49.79
2023-05-13T06:17:42.902Z,49.47
2023-05-13T06:18:42.897Z,49.47
2023-05-13T06:19:42.855Z,48.66
2023-05-13T06:20:42.884Z,45.76
2023-05-13T06:21:42.858Z,48.66
2023-05-13T06:22:42.840Z,47.86
2023-05-13T06:23:42.891Z,48.18
2023-05-13T06:24:42.820Z,48.18
2023-05-13T06:25:42.832Z,49.95
2023-05-13T06:26:42.801Z,49.31
2023-05-13T06:27:42.805Z,48.34
2023-05-13T06:28:42.803Z,49.15
2023-05-13T06:29:42.807Z,46.57
2023-05-13T06:30:42.785Z,46.08
2023-05-13T06:31:43.837Z,48.50
2023-05-13T06:32:53.470Z,50.27
2023-05-13T06:33:44.757Z,49.63
2023-05-13T06:34:42.765Z,46.41
2023-05-13T06:35:42.760Z,50.11
2023-05-13T06:36:42.733Z,50.43
2023-05-13T06:37:42.739Z,49.31
2023-05-13T06:38:42.725Z,48.02
2023-05-13T06:39:42.765Z,48.50
2023-05-13T06:40:42.736Z,47.53
2023-05-13T06:41:42.707Z,48.82
2023-05-13T06:42:42.692Z,51.24
2023-05-13T06:43:42.681Z,48.82
2023-05-13T06:44:42.691Z,49.31
2023-05-13T06:45:42.751Z,48.34
2023-05-13T06:46:42.688Z,46.41
2023-05-13T06:47:42.711Z,47.70
2023-05-13T06:48:42.670Z,49.63
2023-05-13T06:49:42.663Z,49.15
2023-05-13T06:50:42.688Z,48.02
2023-05-13T06:51:42.658Z,49.15
2023-05-13T06:52:42.638Z,47.70
2023-05-13T06:53:42.626Z,50.11
2023-05-13T06:54:42.642Z,49.79
2023-05-13T06:55:42.622Z,48.34
2023-05-13T06:56:42.643Z,48.98
2023-05-13T06:57:43.625Z,49.79
2023-05-13T06:58:43.689Z,48.34
2023-05-13T06:59:42.594Z,46.73
2023-05-13T07:00:42.621Z,48.50
2023-05-13T07:01:42.581Z,48.34
2023-05-13T07:02:42.624Z,48.02
2023-05-13T07:03:42.629Z,49.15
2023-05-13T07:04:42.552Z,46.73
2023-05-13T07:05:42.538Z,47.70
2023-05-13T07:06:42.540Z,49.63
2023-05-13T07:07:42.580Z,46.41
2023-05-13T07:08:42.552Z,46.41
2023-05-13T07:09:42.513Z,48.34
2023-05-13T07:10:42.510Z,48.98
2023-05-13T07:11:42.498Z,47.70
2023-05-13T07:12:42.525Z,49.63
2023-05-13T07:13:42.478Z,48.02
2023-05-13T07:14:42.501Z,45.76
2023-05-13T07:15:42.483Z,47.37
2023-05-13T07:16:42.500Z,46.73
2023-05-13T07:17:42.704Z,49.63
2023-05-13T07:18:42.487Z,44.15
2023-05-13T07:19:42.464Z,42.86
2023-05-13T07:20:42.436Z,46.89
2023-05-13T07:21:42.438Z,45.76
2023-05-13T07:22:42.432Z,48.66
2023-05-13T07:23:44.287Z,46.57
2023-05-13T07:24:43.410Z,45.28
2023-05-13T07:25:42.418Z,46.25
2023-05-13T07:26:42.391Z,46.89
2023-05-13T07:27:42.389Z,44.79
2023-05-13T07:28:42.397Z,45.28
2023-05-13T07:29:42.433Z,45.44
2023-05-13T07:30:42.451Z,42.06
2023-05-13T07:31:42.374Z,40.61
2023-05-13T07:32:42.403Z,45.44
2023-05-13T07:33:42.367Z,42.22
2023-05-13T07:34:42.340Z,43.83
2023-05-13T07:35:42.345Z,43.83
2023-05-13T07:36:42.352Z,44.79
2023-05-13T07:37:42.332Z,42.70
2023-05-13T07:38:42.349Z,46.08
2023-05-13T07:39:42.311Z,46.89
2023-05-13T07:40:42.306Z,47.37
2023-05-13T07:41:42.330Z,44.96
2023-05-13T07:42:42.301Z,45.92
2023-05-13T07:43:42.302Z,46.08
2023-05-13T07:44:42.307Z,45.92
2023-05-13T07:45:42.298Z,44.47
2023-05-13T07:46:42.301Z,45.60
2023-05-13T07:47:44.382Z,45.44
2023-05-13T07:48:43.271Z,45.12
2023-05-13T07:49:42.297Z,43.51
2023-05-13T07:50:42.238Z,41.89
2023-05-13T07:51:42.241Z,41.89
2023-05-13T07:52:42.236Z,46.08
2023-05-13T07:53:42.265Z,45.76
2023-05-13T07:54:42.233Z,42.38
2023-05-13T07:55:42.242Z,45.28
2023-05-13T07:56:42.206Z,42.38
2023-05-13T07:57:42.202Z,44.63
2023-05-13T07:58:42.217Z,43.34
2023-05-13T07:59:44.545Z,42.38
2023-05-13T08:00:43.188Z,42.22
2023-05-13T08:01:42.175Z,41.73
2023-05-13T08:02:42.292Z,43.02
2023-05-13T08:03:42.276Z,42.86
2023-05-13T08:04:42.238Z,41.73
2023-05-13T08:05:42.152Z,42.86
2023-05-13T08:06:42.156Z,42.70
2023-05-13T08:07:42.146Z,42.06
2023-05-13T08:08:42.171Z,40.61
2023-05-13T08:09:42.148Z,41.25
2023-05-13T08:10:42.119Z,41.57
2023-05-13T08:11:42.147Z,43.34
2023-05-13T08:12:42.117Z,42.06
2023-05-13T08:13:42.116Z,42.22
2023-05-13T08:14:42.114Z,43.18
2023-05-13T08:15:42.112Z,43.18
2023-05-13T08:16:42.109Z,41.89
2023-05-13T08:17:42.152Z,41.73
2023-05-13T08:18:42.106Z,43.99
2023-05-13T08:19:42.063Z,44.31
2023-05-13T08:20:42.075Z,40.12
2023-05-13T08:21:42.054Z,42.70
2023-05-13T08:22:42.041Z,40.61
2023-05-13T08:23:45.837Z,41.89
2023-05-13T08:24:43.041Z,40.93
2023-05-13T08:25:42.053Z,44.63
2023-05-13T08:26:42.026Z,43.34
2023-05-13T08:27:42.013Z,42.86
2023-05-13T08:28:42.679Z,43.67
2023-05-13T08:29:42.059Z,44.63
2023-05-13T08:30:41.991Z,43.18
2023-05-13T08:31:42.064Z,44.79
2023-05-13T08:32:42.032Z,43.67
2023-05-13T08:33:43.006Z,44.96
2023-05-13T08:34:41.972Z,43.83
2023-05-13T08:35:44.213Z,44.15
2023-05-13T08:36:41.958Z,44.31
2023-05-13T08:37:42.018Z,40.61
2023-05-13T08:38:41.953Z,43.83
2023-05-13T08:39:41.947Z,42.22
2023-05-13T08:40:41.921Z,43.83
2023-05-13T08:41:41.927Z,44.96
2023-05-13T08:42:41.937Z,41.57
2023-05-13T08:43:41.904Z,45.28
2023-05-13T08:44:41.912Z,46.41
2023-05-13T08:45:41.944Z,43.67
2023-05-13T08:46:41.891Z,47.70
2023-05-13T08:47:42.031Z,46.89
2023-05-13T08:48:41.891Z,44.15
2023-05-13T08:49:41.896Z,42.22
2023-05-13T08:50:41.875Z,40.44
2023-05-13T08:51:41.867Z,43.51
2023-05-13T08:52:41.899Z,42.86
2023-05-13T08:53:41.867Z,42.70
2023-05-13T08:54:41.856Z,42.54
2023-05-13T08:55:41.856Z,42.70
2023-05-13T08:56:41.832Z,43.99
2023-05-13T08:57:41.820Z,41.89
2023-05-13T08:58:41.828Z,43.51
2023-05-13T08:59:41.835Z,45.12
2023-05-13T09:00:41.843Z,42.86
2023-05-13T09:01:41.847Z,43.99
2023-05-13T09:02:41.866Z,41.89
2023-05-13T09:03:41.808Z,38.51
2023-05-13T09:04:41.843Z,43.02
2023-05-13T09:05:41.823Z,43.67
2023-05-13T09:06:41.796Z,42.06
2023-05-13T09:07:41.811Z,44.15
2023-05-13T09:08:41.781Z,40.44
2023-05-13T09:09:41.768Z,44.31
2023-05-13T09:10:41.796Z,41.73
2023-05-13T09:11:43.964Z,44.31
2023-05-13T09:12:41.750Z,44.31
2023-05-13T09:13:41.737Z,44.31
2023-05-13T09:14:41.725Z,44.79
2023-05-13T09:15:41.760Z,42.54
2023-05-13T09:16:41.741Z,41.73
2023-05-13T09:17:41.740Z,43.99
2023-05-13T09:18:41.830Z,43.18
2023-05-13T09:19:41.788Z,42.22
2023-05-13T09:20:41.698Z,45.44
2023-05-13T09:21:41.688Z,43.99
2023-05-13T09:22:41.687Z,44.79
2023-05-13T09:23:41.671Z,47.21
2023-05-13T09:24:41.670Z,51.88
2023-05-13T09:25:41.658Z,55.27
2023-05-13T09:26:41.654Z,61.07
2023-05-13T09:27:41.694Z,47.86
2023-05-13T09:28:41.662Z,49.31
2023-05-13T09:29:41.635Z,53.33
2023-05-13T09:30:43.770Z,53.01
2023-05-13T09:31:41.744Z,49.95
2023-05-13T09:32:41.650Z,50.11
2023-05-13T09:33:41.625Z,52.53
2023-05-13T09:34:41.617Z,48.18
2023-05-13T09:35:41.633Z,46.25
2023-05-13T09:36:41.616Z,48.98
2023-05-13T09:37:41.607Z,48.34
2023-05-13T09:38:41.605Z,46.89
2023-05-13T09:39:41.951Z,50.11
2023-05-13T09:40:41.569Z,51.24
2023-05-13T09:41:41.565Z,48.82
2023-05-13T09:42:41.600Z,48.18
2023-05-13T09:43:41.547Z,50.76
2023-05-13T09:44:41.553Z,52.21
2023-05-13T09:45:41.549Z,52.21
2023-05-13T09:46:41.562Z,52.21
2023-05-13T09:47:41.575Z,49.47
2023-05-13T09:48:41.523Z,49.15
2023-05-13T09:49:41.518Z,49.15
2023-05-13T09:50:41.527Z,53.66
2023-05-13T09:51:41.517Z,51.24
2023-05-13T09:52:41.511Z,55.43
2023-05-13T09:53:41.506Z,61.55
2023-05-13T09:54:41.820Z,64.13
2023-05-13T09:55:41.489Z,59.46
2023-05-13T09:56:41.479Z,58.01
2023-05-13T09:57:41.526Z,59.62
2023-05-13T09:58:41.491Z,59.78
2023-05-13T09:59:41.449Z,59.30
2023-05-13T10:00:41.650Z,50.43
2023-05-13T10:01:41.678Z,50.43
2023-05-13T10:02:41.481Z,50.60
2023-05-13T10:03:41.538Z,51.24
2023-05-13T10:04:41.480Z,58.01
2023-05-13T10:05:41.454Z,60.42
2023-05-13T10:06:41.431Z,48.34
2023-05-13T10:07:41.407Z,49.63
2023-05-13T10:08:41.448Z,50.11
2023-05-13T10:09:41.415Z,49.15
2023-05-13T10:10:41.392Z,50.11
2023-05-13T10:11:41.384Z,49.63
2023-05-13T10:12:41.406Z,55.59
2023-05-13T10:13:41.364Z,49.79
2023-05-13T10:14:41.379Z,48.34
2023-05-13T10:15:41.357Z,50.60
2023-05-13T10:16:41.395Z,50.43
2023-05-13T10:17:41.378Z,51.40
2023-05-13T10:18:41.373Z,49.63
2023-05-13T10:19:41.332Z,48.98
2023-05-13T10:20:41.327Z,46.57
2023-05-13T10:21:41.314Z,48.02
2023-05-13T10:22:41.306Z,47.70
2023-05-13T10:23:41.289Z,47.05
2023-05-13T10:24:41.308Z,46.41
2023-05-13T10:25:41.298Z,47.86
2023-05-13T10:26:41.277Z,47.70
2023-05-13T10:27:41.296Z,46.73
2023-05-13T10:28:41.256Z,51.08
2023-05-13T10:29:41.259Z,47.70
2023-05-13T10:30:41.263Z,49.95
2023-05-13T10:31:41.257Z,47.37
2023-05-13T10:32:41.778Z,53.50
2023-05-13T10:33:41.233Z,52.69
2023-05-13T10:34:41.296Z,48.82
2023-05-13T10:35:42.755Z,49.31
2023-05-13T10:36:42.200Z,48.18
2023-05-13T10:37:41.195Z,47.86
2023-05-13T10:38:41.263Z,48.18
2023-05-13T10:39:41.205Z,49.95
2023-05-13T10:40:41.166Z,47.86
2023-05-13T10:41:41.166Z,48.02
2023-05-13T10:42:41.183Z,48.50
2023-05-13T10:43:41.157Z,51.72
2023-05-13T10:44:41.165Z,51.24
2023-05-13T10:45:41.151Z,49.79
2023-05-13T10:46:41.147Z,50.76
2023-05-13T10:47:41.175Z,50.11
2023-05-13T10:48:41.180Z,51.56
2023-05-13T10:49:41.129Z,51.40
2023-05-13T10:50:41.123Z,52.21
2023-05-13T10:51:41.113Z,53.33
2023-05-13T10:52:41.096Z,49.63
2023-05-13T10:53:41.091Z,53.01
2023-05-13T10:54:41.103Z,53.50
2023-05-13T10:55:41.441Z,52.85
2023-05-13T10:56:41.061Z,54.14
2023-05-13T10:57:41.075Z,50.60
2023-05-13T10:58:41.059Z,51.88
2023-05-13T10:59:41.052Z,57.36
2023-05-13T11:00:41.061Z,53.01
2023-05-13T11:01:41.079Z,53.66
2023-05-13T11:02:41.083Z,53.98
2023-05-13T11:03:41.224Z,53.01
2023-05-13T11:04:41.022Z,52.21
2023-05-13T11:05:41.022Z,54.62
2023-05-13T11:06:41.031Z,53.98
2023-05-13T11:07:41.027Z,55.59
2023-05-13T11:08:41.003Z,52.85
2023-05-13T11:09:40.992Z,53.50
2023-05-13T11:10:41.009Z,52.85
2023-05-13T11:11:40.985Z,52.85
2023-05-13T11:12:40.956Z,52.85
2023-05-13T11:13:40.973Z,54.46
2023-05-13T11:14:40.955Z,53.82
2023-05-13T11:15:40.939Z,54.95
2023-05-13T11:16:40.984Z,55.91
2023-05-13T11:17:40.954Z,54.79
2023-05-13T11:18:40.991Z,53.01
2023-05-13T11:19:40.914Z,54.14
2023-05-13T11:20:51.697Z,54.30
2023-05-13T11:21:42.908Z,54.46
2023-05-13T11:22:40.902Z,53.82
2023-05-13T11:23:40.903Z,55.11
2023-05-13T11:24:40.892Z,53.98
2023-05-13T11:25:40.880Z,54.95
2023-05-13T11:26:40.871Z,57.20
2023-05-13T11:27:41.876Z,56.88
2023-05-13T11:28:40.871Z,57.52
2023-05-13T11:29:40.856Z,54.79
2023-05-13T11:30:40.869Z,56.72
2023-05-13T11:31:40.879Z,56.40
2023-05-13T11:32:40.879Z,56.88
2023-05-13T11:33:40.820Z,56.24
2023-05-13T11:34:40.815Z,55.75
2023-05-13T11:35:40.802Z,56.56
2023-05-13T11:36:40.800Z,57.04
2023-05-13T11:37:40.826Z,58.17
2023-05-13T11:38:41.785Z,56.07
2023-05-13T11:39:40.819Z,57.36
2023-05-13T11:40:40.765Z,57.36
2023-05-13T11:41:40.767Z,56.24
2023-05-13T11:42:40.764Z,58.01
2023-05-13T11:43:40.761Z,56.88
2023-05-13T11:44:40.734Z,56.40
2023-05-13T11:45:40.767Z,54.30
2023-05-13T11:46:40.728Z,55.91
2023-05-13T11:47:40.803Z,56.07
2023-05-13T11:48:40.714Z,55.43
2023-05-13T11:49:40.733Z,57.85
2023-05-13T11:50:40.697Z,57.20
2023-05-13T11:51:40.693Z,56.40
2023-05-13T11:52:40.691Z,54.79
2023-05-13T11:53:40.695Z,54.95
2023-05-13T11:54:40.685Z,53.17
2023-05-13T11:55:40.669Z,53.33
2023-05-13T11:56:40.669Z,53.82
2023-05-13T11:57:40.670Z,53.66
2023-05-13T11:58:40.651Z,52.85
2023-05-13T11:59:48.002Z,51.24
2023-05-13T12:00:44.002Z,51.24
2023-05-13T12:01:40.640Z,52.53
2023-05-13T12:02:41.155Z,51.72
2023-05-13T12:03:40.655Z,53.50
2023-05-13T12:04:40.622Z,53.33
2023-05-13T12:05:40.792Z,52.69
2023-05-13T12:06:40.609Z,49.95
2023-05-13T12:07:40.600Z,48.82
2023-05-13T12:08:40.589Z,50.60
2023-05-13T12:09:40.594Z,49.15
2023-05-13T12:10:40.565Z,49.47
2023-05-13T12:11:41.606Z,50.11
2023-05-13T12:12:40.556Z,50.92
2023-05-13T12:13:40.552Z,49.63
2023-05-13T12:14:40.589Z,50.27
2023-05-13T12:15:40.642Z,50.27
2023-05-13T12:16:40.530Z,49.63
2023-05-13T12:17:40.610Z,47.37
2023-05-13T12:18:40.533Z,46.41
2023-05-13T12:19:40.533Z,47.37
2023-05-13T12:20:40.508Z,48.50
2023-05-13T12:21:40.521Z,47.37
2023-05-13T12:22:40.487Z,48.66
2023-05-13T12:23:40.509Z,46.89
2023-05-13T12:24:40.470Z,47.53
2023-05-13T12:25:40.495Z,47.86
2023-05-13T12:26:40.488Z,47.05
2023-05-13T12:27:40.457Z,46.89
2023-05-13T12:28:40.451Z,49.31
2023-05-13T12:29:40.443Z,49.31
2023-05-13T12:30:40.448Z,49.15
2023-05-13T12:31:40.492Z,48.34
2023-05-13T12:32:40.513Z,47.21
2023-05-13T12:33:40.416Z,49.15
2023-05-13T12:34:40.408Z,47.21
2023-05-13T12:35:40.408Z,47.86
2023-05-13T12:36:40.466Z,46.08
2023-05-13T12:37:40.484Z,46.25
2023-05-13T12:38:40.381Z,46.73
2023-05-13T12:39:40.374Z,45.28
2023-05-13T12:40:40.366Z,45.12
2023-05-13T12:41:40.394Z,48.02
2023-05-13T12:42:40.375Z,45.92
2023-05-13T12:43:40.352Z,48.50
2023-05-13T12:44:40.338Z,44.96
2023-05-13T12:45:42.087Z,44.79
2023-05-13T12:46:41.394Z,45.12
2023-05-13T12:47:40.403Z,45.92
2023-05-13T12:48:40.329Z,45.92
2023-05-13T12:49:40.307Z,46.73
2023-05-13T12:50:40.315Z,44.79
2023-05-13T12:51:40.298Z,47.21
2023-05-13T12:52:40.318Z,47.05